Time;durP1;ratioP1;P1;durP2;ratioP2;P2;SDS_P1;SDS_P2;PMS_P1;PMS_P2;Temp;Humidity;BMP_temperature;BMP_pressure;BME280_temperature;BME280_humidity;BME280_pressure;Samples;Min_cycle;Max_cycle;Signal;HPM_P1;HPM_P2
2023/02/09 00:01:34;;;;;;;18.55;10.60;;;;;;;-3.16;100.00;102145.84;5037243;28;20204;-72
2023/02/09 00:04:02;;;;;;;19.50;11.27;;;;;;;-3.00;100.00;102147.31;5037197;28;20726;-72
2023/02/09 00:06:29;;;;;;;16.95;11.27;;;;;;;-2.93;100.00;102141.44;5044375;28;20208;-72
2023/02/09 00:08:56;;;;;;;15.35;11.07;;;;;;;-2.85;100.00;102146.97;5043600;28;20267;-72
2023/02/09 00:13:21;;;;;;;19.48;10.48;;;;;;;-2.82;100.00;102144.47;5038255;28;20649;-73
2023/02/09 00:14:13;;;;;;;18.48;11.52;;;;;;;-2.80;100.00;102138.41;5036801;28;20233;-72
2023/02/09 00:16:40;;;;;;;25.50;12.35;;;;;;;-2.73;100.00;102140.44;5037247;28;20205;-71
2023/02/09 00:19:07;;;;;;;18.02;11.57;;;;;;;-2.72;100.00;102134.28;5035854;28;20228;-71
2023/02/09 00:21:33;;;;;;;18.35;10.98;;;;;;;-2.78;100.00;102130.53;5036718;28;20212;-72
2023/02/09 00:24:00;;;;;;;24.52;13.23;;;;;;;-2.80;100.00;102132.25;5036356;28;20207;-72
2023/02/09 00:26:26;;;;;;;20.38;11.48;;;;;;;-2.80;100.00;102125.22;5036446;28;20200;-72
2023/02/09 00:28:53;;;;;;;19.80;12.60;;;;;;;-2.84;100.00;102136.50;5034952;28;20230;-71
2023/02/09 00:31:21;;;;;;;28.23;11.85;;;;;;;-2.78;100.00;102138.44;5035747;28;20209;-72
2023/02/09 00:33:48;;;;;;;23.63;12.70;;;;;;;-2.78;100.00;102133.16;5036153;28;20228;-71
2023/02/09 00:36:15;;;;;;;22.25;13.60;;;;;;;-2.77;100.00;102129.72;5035846;28;20212;-71
2023/02/09 00:38:42;;;;;;;25.65;13.63;;;;;;;-2.79;100.00;102131.38;5035529;28;20607;-72
2023/02/09 00:41:09;;;;;;;24.63;14.23;;;;;;;-2.79;100.00;102121.72;5035220;28;20580;-73
2023/02/09 00:43:36;;;;;;;22.60;12.80;;;;;;;-2.77;100.00;102127.06;5046296;28;20204;-73
2023/02/09 00:46:03;;;;;;;19.48;12.52;;;;;;;-2.75;100.00;102123.66;5041873;28;20211;-73
2023/02/09 00:48:31;;;;;;;23.42;13.05;;;;;;;-2.79;100.00;102120.84;5037913;28;20225;-73
2023/02/09 00:50:58;;;;;;;17.85;11.57;;;;;;;-2.81;100.00;102112.84;5036831;28;20205;-74
2023/02/09 00:53:25;;;;;;;24.70;13.20;;;;;;;-2.88;100.00;102115.22;5037305;28;20228;-73
2023/02/09 00:55:52;;;;;;;20.60;12.90;;;;;;;-2.85;100.00;102115.31;5036616;28;20193;-74
2023/02/09 00:58:19;;;;;;;26.08;13.30;;;;;;;-2.86;100.00;102109.16;5049703;22;20240;-75
2023/02/09 01:00:46;;;;;;;20.58;12.60;;;;;;;-2.77;100.00;102109.50;5037482;28;20210;-74
2023/02/09 01:03:12;;;;;;;24.23;12.95;;;;;;;-2.84;100.00;102101.31;5038097;28;20201;-75
2023/02/09 01:05:41;;;;;;;21.23;12.38;;;;;;;-3.00;100.00;102098.13;5037880;28;20295;-74
2023/02/09 01:08:07;;;;;;;28.27;13.65;;;;;;;-3.02;100.00;102098.91;5033120;28;20228;-74
2023/02/09 01:10:34;;;;;;;20.20;12.30;;;;;;;-2.95;100.00;102095.66;5026846;28;20378;-74
2023/02/09 01:13:01;;;;;;;25.50;12.85;;;;;;;-2.79;100.00;102095.34;5038569;28;20224;-75
2023/02/09 01:15:28;;;;;;;24.42;13.55;;;;;;;-2.70;100.00;102091.28;5038403;28;20208;-73
2023/02/09 01:17:54;;;;;;;29.17;13.98;;;;;;;-2.61;100.00;102089.84;5038838;28;20201;-74
2023/02/09 01:20:21;;;;;;;22.65;13.48;;;;;;;-2.56;100.00;102095.28;5041092;28;20212;-74
2023/02/09 01:22:49;;;;;;;18.40;12.60;;;;;;;-2.41;100.00;102090.53;5041830;28;20272;-76
2023/02/09 01:25:15;;;;;;;19.42;12.63;;;;;;;-2.29;100.00;102094.44;5039504;28;20295;-74
2023/02/09 01:27:42;;;;;;;24.45;13.98;;;;;;;-2.28;100.00;102089.25;5037781;28;20203;-74
2023/02/09 01:30:09;;;;;;;24.23;14.13;;;;;;;-2.37;100.00;102083.66;5037708;28;20686;-74
2023/02/09 01:32:36;;;;;;;23.05;14.25;;;;;;;-2.46;100.00;102083.34;5038167;28;20205;-74
2023/02/09 01:35:03;;;;;;;20.30;12.15;;;;;;;-2.49;100.00;102073.53;5036942;28;20258;-75
2023/02/09 01:37:29;;;;;;;22.35;14.88;;;;;;;-2.48;100.00;102075.34;5036572;28;20218;-75
2023/02/09 01:39:57;;;;;;;21.35;11.68;;;;;;;-2.57;100.00;102069.75;5038800;28;20623;-74
2023/02/09 01:42:24;;;;;;;22.98;13.13;;;;;;;-2.64;100.00;102071.28;5039647;28;20205;-73
2023/02/09 01:45:07;;;;;;;20.33;13.80;;;;;;;-2.48;100.00;102063.91;5056101;28;20260;-76
2023/02/09 01:47:39;;;;;;;22.20;12.57;;;;;;;-2.43;100.00;102062.31;5058296;28;20184;-75
2023/02/09 01:50:07;;;;;;;22.58;13.48;;;;;;;-2.32;100.00;102055.66;5058190;28;20346;-75
2023/02/09 01:52:34;;;;;;;23.70;13.80;;;;;;;-2.36;100.00;102057.28;5058797;28;20193;-76
2023/02/09 01:55:05;;;;;;;23.17;12.15;;;;;;;-2.35;100.00;102056.47;5058258;28;20288;-76
2023/02/09 01:57:36;;;;;;;22.25;13.52;;;;;;;-2.41;100.00;102064.16;5057672;28;20244;-76
2023/02/09 02:00:07;;;;;;;21.98;13.73;;;;;;;-2.42;100.00;102059.75;5045521;28;20706;-75
2023/02/09 02:02:34;;;;;;;23.40;14.25;;;;;;;-2.53;100.00;102055.84;5041359;28;20300;-73
2023/02/09 02:05:01;;;;;;;20.23;11.48;;;;;;;-2.58;100.00;102046.84;5041989;28;20291;-73
2023/02/09 02:07:33;;;;;;;23.83;13.95;;;;;;;-2.69;100.00;102043.84;5040061;28;20291;-77
2023/02/09 02:10:01;;;;;;;25.92;13.65;;;;;;;-2.70;100.00;102049.06;5043197;28;20275;-74
2023/02/09 02:12:30;;;;;;;24.15;12.40;;;;;;;-2.77;100.00;102040.03;5044327;28;20236;-74
2023/02/09 02:14:56;;;;;;;22.50;13.48;;;;;;;-2.73;100.00;102042.84;5046083;28;20232;-74
2023/02/09 02:17:39;;;;;;;21.13;12.88;;;;;;;-2.83;100.00;102038.06;5046099;28;20205;-74
2023/02/09 02:20:57;;;;;;;23.52;12.85;;;;;;;-2.90;100.00;102036.06;5046817;28;20235;-75
2023/02/09 02:23:31;;;;;;;23.25;12.90;;;;;;;-2.97;100.00;102024.41;5045855;28;20205;-73
2023/02/09 02:26:32;;;;;;;24.40;15.10;;;;;;;-3.03;100.00;102020.63;5046016;28;20270;-74
2023/02/09 02:29:40;;;;;;;26.33;14.50;;;;;;;-2.98;100.00;102021.72;5040408;28;20294;-74
2023/02/09 02:32:16;;;;;;;23.48;13.02;;;;;;;-3.05;100.00;102019.69;4977932;28;20203;-74
2023/02/09 02:34:50;;;;;;;24.02;13.75;;;;;;;-3.03;100.00;102021.56;4980171;28;20233;-74
2023/02/09 02:37:40;;;;;;;22.40;12.95;;;;;;;-3.02;100.00;102014.53;4977170;28;20237;-75
2023/02/09 02:40:18;;;;;;;26.15;13.63;;;;;;;-3.07;100.00;102019.66;4976060;28;20610;-74
2023/02/09 02:42:52;;;;;;;27.73;14.13;;;;;;;-3.07;100.00;102014.38;4976887;28;20298;-76
2023/02/09 02:45:28;;;;;;;24.08;14.68;;;;;;;-3.01;100.00;102013.69;4980469;28;20774;-74
2023/02/09 02:48:01;;;;;;;20.80;12.80;;;;;;;-3.00;100.00;102007.59;4980804;28;20683;-75
2023/02/09 02:50:31;;;;;;;22.30;14.52;;;;;;;-3.05;100.00;102012.69;4980239;28;20684;-73
2023/02/09 02:53:02;;;;;;;22.55;13.68;;;;;;;-3.05;100.00;102003.88;4980852;28;20238;-73
2023/02/09 02:55:31;;;;;;;25.25;12.63;;;;;;;-3.00;100.00;102002.31;4978238;28;20211;-74
2023/02/09 02:58:02;;;;;;;26.20;14.48;;;;;;;-2.92;100.00;102008.72;4981709;28;20214;-75
2023/02/09 03:00:34;;;;;;;21.60;13.32;;;;;;;-2.95;100.00;102006.00;4990354;28;20229;-73
2023/02/09 03:03:08;;;;;;;20.60;13.27;;;;;;;-3.10;100.00;102006.34;4980253;28;20258;-75
2023/02/09 03:05:36;;;;;;;19.85;12.98;;;;;;;-3.03;100.00;102004.81;4978115;28;20207;-74
2023/02/09 03:08:03;;;;;;;30.00;15.65;;;;;;;-2.99;100.00;101997.06;4983635;28;20713;-74
2023/02/09 03:10:33;;;;;;;29.33;14.20;;;;;;;-3.02;100.00;102001.38;5039117;28;20211;-74
2023/02/09 03:13:09;;;;;;;17.75;12.05;;;;;;;-2.95;100.00;102009.53;5038569;28;20192;-74
2023/02/09 03:15:45;;;;;;;26.70;14.32;;;;;;;-3.11;100.00;102003.66;5039197;28;20215;-75
2023/02/09 03:18:22;;;;;;;23.08;13.40;;;;;;;-3.10;100.00;102008.97;5036995;28;20239;-75
2023/02/09 03:20:52;;;;;;;26.20;14.30;;;;;;;-3.07;100.00;102002.94;5041471;28;20273;-73
2023/02/09 03:23:31;;;;;;;25.65;13.98;;;;;;;-3.18;100.00;102005.19;5041816;28;20271;-75
2023/02/09 03:26:03;;;;;;;22.35;13.43;;;;;;;-3.25;100.00;102011.97;5041925;28;20559;-75
2023/02/09 03:28:34;;;;;;;24.13;13.82;;;;;;;-3.27;100.00;102010.13;5031024;28;20230;-75
2023/02/09 03:31:03;;;;;;;21.67;13.82;;;;;;;-3.24;100.00;102016.38;5020837;28;20193;-73
2023/02/09 03:33:33;;;;;;;27.80;13.88;;;;;;;-3.19;100.00;102017.47;5024557;28;20196;-73
2023/02/09 03:36:02;;;;;;;24.63;12.75;;;;;;;-3.19;100.00;102020.09;5040766;28;20193;-73
2023/02/09 03:38:29;;;;;;;22.92;14.50;;;;;;;-3.27;100.00;102023.28;5039648;28;20220;-73
2023/02/09 03:40:55;;;;;;;23.10;13.45;;;;;;;-3.28;100.00;102021.47;5033420;28;20587;-74
2023/02/09 03:44:25;;;;;;;23.30;13.82;;;;;;;-3.28;100.00;102030.31;5031111;28;20215;-75
2023/02/09 03:46:09;;;;;;;25.25;13.80;;;;;;;-3.35;100.00;102025.63;5041403;28;20624;-74
2023/02/09 03:48:37;;;;;;;26.73;14.48;;;;;;;-3.49;100.00;102024.22;5020428;28;20225;-73
2023/02/09 03:51:05;;;;;;;29.33;13.32;;;;;;;-3.44;100.00;102013.00;5020466;28;20215;-74
2023/02/09 03:53:34;;;;;;;30.15;15.80;;;;;;;-3.40;100.00;102011.38;5029657;28;20204;-74
2023/02/09 03:56:01;;;;;;;24.35;13.57;;;;;;;-3.36;100.00;102013.31;5034245;28;20201;-74
2023/02/09 03:58:27;;;;;;;23.13;14.23;;;;;;;-3.40;100.00;102016.66;5027985;28;20292;-73
2023/02/09 04:00:54;;;;;;;25.83;14.88;;;;;;;-3.42;100.00;102015.72;5044458;28;20199;-73
2023/02/09 04:03:20;;;;;;;25.35;14.60;;;;;;;-3.41;100.00;102018.41;5033654;28;20192;-74
2023/02/09 04:05:48;;;;;;;26.63;14.55;;;;;;;-3.43;100.00;102019.19;5042784;28;20209;-74
2023/02/09 04:08:15;;;;;;;30.55;15.30;;;;;;;-3.47;100.00;102019.91;5030076;28;20223;-74
2023/02/09 04:10:41;;;;;;;30.63;16.33;;;;;;;-3.45;100.00;102016.50;5022520;28;20675;-74
2023/02/09 04:13:08;;;;;;;24.42;14.00;;;;;;;-3.45;100.00;102012.97;5022009;28;20201;-74
2023/02/09 04:15:35;;;;;;;28.13;14.35;;;;;;;-3.52;100.00;102017.09;5027654;28;20235;-74
2023/02/09 04:18:02;;;;;;;23.98;14.98;;;;;;;-3.47;100.00;102010.25;5022418;28;20229;-75
2023/02/09 04:20:28;;;;;;;23.67;14.15;;;;;;;-3.47;100.00;102012.00;5034845;28;20202;-74
2023/02/09 04:22:56;;;;;;;28.15;15.15;;;;;;;-3.53;100.00;102015.28;5040894;28;20211;-74
2023/02/09 04:25:23;;;;;;;26.20;15.65;;;;;;;-3.58;100.00;102011.59;5041789;28;20695;-74
2023/02/09 04:27:49;;;;;;;27.63;15.63;;;;;;;-3.62;100.00;102007.97;5037122;28;20378;-74
2023/02/09 04:30:16;;;;;;;26.00;14.68;;;;;;;-3.61;100.00;102001.84;5035457;28;20221;-73
2023/02/09 04:32:42;;;;;;;26.10;13.70;;;;;;;-3.67;100.00;102006.88;5020826;28;20204;-75
2023/02/09 04:35:09;;;;;;;27.42;12.93;;;;;;;-3.88;100.00;102003.41;5024033;28;20224;-75
2023/02/09 04:37:35;;;;;;;23.63;14.48;;;;;;;-3.79;100.00;102006.41;5023948;28;20211;-74
2023/02/09 04:40:04;;;;;;;32.30;15.00;;;;;;;-3.72;100.00;102011.06;5037208;28;20595;-74
2023/02/09 04:42:31;;;;;;;28.20;13.27;;;;;;;-3.74;100.00;102009.22;5021027;28;20208;-76
2023/02/09 04:44:58;;;;;;;42.78;22.48;;;;;;;-3.82;100.00;102014.16;5034715;28;20204;-76
2023/02/09 04:47:24;;;;;;;54.40;27.88;;;;;;;-3.83;100.00;102022.91;5037619;28;20207;-74
2023/02/09 04:49:51;;;;;;;29.65;16.15;;;;;;;-3.81;100.00;102021.25;5032260;28;20216;-75
2023/02/09 04:52:17;;;;;;;39.42;20.48;;;;;;;-3.77;100.00;102018.78;5024325;28;20220;-74
2023/02/09 04:54:44;;;;;;;25.25;16.50;;;;;;;-3.88;100.00;102019.22;5018234;28;20706;-74
2023/02/09 04:59:56;;;;;;;33.65;17.80;;;;;;;-4.12;100.00;102008.59;5026374;28;20231;-75
2023/02/09 05:02:22;;;;;;;27.08;17.05;;;;;;;-4.07;100.00;102020.19;5026026;28;20198;-74
2023/02/09 05:04:49;;;;;;;37.80;20.88;;;;;;;-4.06;100.00;102012.38;5029694;28;20653;-76
2023/02/09 05:07:15;;;;;;;32.78;17.55;;;;;;;-4.19;100.00;102008.34;5022604;28;20684;-75
2023/02/09 05:09:42;;;;;;;29.90;17.48;;;;;;;-4.23;100.00;102011.72;5039944;28;20221;-75
2023/02/09 05:12:09;;;;;;;28.88;15.80;;;;;;;-4.14;100.00;102019.06;5024451;28;20195;-75
2023/02/09 05:14:36;;;;;;;33.58;17.65;;;;;;;-4.05;100.00;102015.91;5021875;28;20699;-75
2023/02/09 05:17:03;;;;;;;32.83;17.20;;;;;;;-4.02;100.00;102022.19;5030063;28;20200;-74
2023/02/09 05:19:29;;;;;;;26.63;14.52;;;;;;;-4.06;100.00;102020.28;5039849;28;20226;-74
2023/02/09 05:21:56;;;;;;;77.43;36.70;;;;;;;-4.09;100.00;102014.91;5038856;28;20318;-75
2023/02/09 05:24:23;;;;;;;28.05;16.23;;;;;;;-4.11;100.00;102016.56;5029763;28;20225;-74
2023/02/09 05:26:49;;;;;;;35.33;16.48;;;;;;;-4.10;100.00;102023.59;5035446;28;20205;-74
2023/02/09 05:29:16;;;;;;;33.70;17.15;;;;;;;-4.13;100.00;102020.88;5019650;28;20246;-74
2023/02/09 05:31:44;;;;;;;28.13;15.23;;;;;;;-4.22;100.00;102026.66;5027278;28;20201;-74
2023/02/09 05:34:10;;;;;;;27.27;14.95;;;;;;;-4.27;100.00;102024.69;5027579;28;20236;-74
2023/02/09 05:36:37;;;;;;;23.67;14.88;;;;;;;-4.30;100.00;102027.16;5025600;28;20206;-75
2023/02/09 05:39:03;;;;;;;29.55;17.02;;;;;;;-4.24;100.00;102024.78;5038524;28;20247;-75
2023/02/09 05:44:14;;;;;;;27.02;15.45;;;;;;;-4.22;100.00;102025.75;5022441;28;20234;-76
2023/02/09 05:46:40;;;;;;;36.10;20.23;;;;;;;-4.28;100.00;102021.13;5043493;28;20200;-75
2023/02/09 05:49:08;;;;;;;85.00;39.42;;;;;;;-4.33;100.00;102021.78;5055631;28;20299;-74
2023/02/09 05:51:35;;;;;;;32.95;19.05;;;;;;;-4.31;100.00;102017.50;5052253;28;20202;-75
2023/02/09 05:54:01;;;;;;;31.17;17.48;;;;;;;-4.37;100.00;102017.22;5056406;28;20216;-74
2023/02/09 05:56:28;;;;;;;29.55;15.50;;;;;;;-4.55;100.00;102013.00;5055709;28;20248;-75
2023/02/09 05:58:55;;;;;;;59.35;29.95;;;;;;;-4.42;100.00;102017.03;5039398;28;20220;-74
2023/02/09 06:01:22;;;;;;;35.78;18.55;;;;;;;-4.40;100.00;102012.75;5034128;28;20260;-74
2023/02/09 06:03:48;;;;;;;30.80;16.48;;;;;;;-4.35;100.00;102016.44;5033071;28;20219;-75
2023/02/09 06:06:16;;;;;;;30.67;15.70;;;;;;;-4.31;100.00;102012.22;5030973;28;20730;-75
2023/02/09 06:08:43;;;;;;;43.53;23.08;;;;;;;-4.33;100.00;102016.53;5029824;28;20267;-75
2023/02/09 06:11:09;;;;;;;34.85;15.77;;;;;;;-4.45;100.00;102014.28;5018849;28;20292;-74
2023/02/09 06:13:36;;;;;;;29.65;15.00;;;;;;;-4.59;100.00;102011.09;5018697;28;20667;-74
2023/02/09 06:16:02;;;;;;;27.90;15.45;;;;;;;-4.56;100.00;102015.59;5017987;28;20229;-75
2023/02/09 06:18:29;;;;;;;26.70;15.50;;;;;;;-4.56;100.00;102016.47;5028326;28;20220;-75
2023/02/09 06:20:55;;;;;;;26.77;15.35;;;;;;;-4.53;100.00;102023.59;5039105;28;20211;-74
2023/02/09 06:23:23;;;;;;;29.63;15.38;;;;;;;-4.60;100.00;102025.06;5038836;28;20219;-73
2023/02/09 06:25:52;;;;;;;26.92;14.60;;;;;;;-4.63;100.00;102025.81;5042908;28;20197;-73
2023/02/09 06:28:18;;;;;;;29.13;14.98;;;;;;;-4.78;100.00;102024.28;5044663;28;20228;-74
2023/02/09 06:30:49;;;;;;;30.08;16.60;;;;;;;-4.84;100.00;102036.31;5043902;28;20335;-75
2023/02/09 06:33:16;;;;;;;28.33;15.23;;;;;;;-4.76;100.00;102038.38;5042687;28;20246;-74
2023/02/09 06:35:43;;;;;;;26.98;15.18;;;;;;;-4.71;100.00;102037.75;5037777;28;20307;-74
2023/02/09 06:38:10;;;;;;;29.00;15.10;;;;;;;-4.86;100.00;102044.94;5032344;28;20801;-75
2023/02/09 06:40:38;;;;;;;28.00;15.38;;;;;;;-4.91;100.00;102042.13;5020479;28;20211;-76
2023/02/09 06:43:05;;;;;;;34.63;16.33;;;;;;;-4.92;100.00;102042.97;5019710;28;20205;-75
2023/02/09 06:45:31;;;;;;;31.95;14.95;;;;;;;-4.89;100.00;102053.59;5023640;28;20204;-73
2023/02/09 06:47:58;;;;;;;28.13;15.00;;;;;;;-4.96;100.00;102054.16;5039676;28;20208;-74
2023/02/09 06:50:24;;;;;;;28.27;14.43;;;;;;;-4.98;100.00;102060.19;5036932;28;20198;-74
2023/02/09 06:52:51;;;;;;;31.75;15.07;;;;;;;-4.98;100.00;102058.47;5019609;28;20201;-75
2023/02/09 06:55:17;;;;;;;32.22;15.20;;;;;;;-5.06;100.00;102052.88;5016274;28;20234;-74
2023/02/09 06:57:45;;;;;;;29.25;15.68;;;;;;;-5.08;100.00;102043.13;5015612;28;20223;-75
2023/02/09 07:00:13;;;;;;;29.67;16.73;;;;;;;-4.99;100.00;102051.41;5090129;22;20226;-71
2023/02/09 07:02:43;;;;;;;28.95;15.48;;;;;;;-4.93;100.00;102062.22;5085953;28;20294;-71
2023/02/09 07:05:09;;;;;;;26.83;14.85;;;;;;;-4.98;100.00;102068.09;5074378;28;20200;-70
2023/02/09 07:07:36;;;;;;;34.45;15.32;;;;;;;-4.95;100.00;102056.00;5078793;28;20230;-70
2023/02/09 07:10:04;;;;;;;31.83;16.83;;;;;;;-4.86;100.00;102068.59;5075028;28;20218;-70
2023/02/09 07:12:31;;;;;;;30.23;13.70;;;;;;;-4.84;100.00;102056.44;5056175;28;20226;-70
2023/02/09 07:14:59;;;;;;;29.98;15.63;;;;;;;-4.66;100.00;102059.91;5066100;28;20223;-70
2023/02/09 07:17:28;;;;;;;31.35;14.32;;;;;;;-4.46;100.00;102051.94;5069139;28;20219;-70
2023/02/09 07:19:54;;;;;;;28.98;15.80;;;;;;;-4.51;100.00;102061.38;5073385;28;20230;-71
2023/02/09 07:22:22;;;;;;;29.92;15.43;;;;;;;-4.23;100.00;102060.78;5071987;28;20203;-71
2023/02/09 07:24:48;;;;;;;28.42;14.95;;;;;;;-4.17;100.00;102068.03;5073725;28;20617;-71
2023/02/09 07:27:15;;;;;;;27.98;14.98;;;;;;;-4.01;100.00;102071.34;5073454;28;20211;-69
2023/02/09 07:29:41;;;;;;;28.85;14.75;;;;;;;-3.43;100.00;102062.22;5073629;28;20227;-70
2023/02/09 07:32:10;;;;;;;27.05;16.17;;;;;;;-2.61;100.00;102065.22;5069389;28;20212;-71
2023/02/09 07:34:36;;;;;;;27.02;15.80;;;;;;;-1.98;100.00;102068.22;5042416;28;20196;-71
2023/02/09 07:37:04;;;;;;;25.08;15.15;;;;;;;-1.24;100.00;102077.53;5053718;28;20211;-72
2023/02/09 07:39:30;;;;;;;19.50;12.68;;;;;;;-0.45;100.00;102058.63;5033815;28;20235;-71
2023/02/09 07:41:57;;;;;;;23.63;14.32;;;;;;;-0.10;100.00;102065.69;5042650;28;20283;-72
2023/02/09 07:44:24;;;;;;;29.08;13.00;;;;;;;0.28;100.00;102071.03;5037080;28;20291;-69
2023/02/09 07:46:52;;;;;;;24.48;14.70;;;;;;;0.25;100.00;102074.50;5033181;28;20662;-70
2023/02/09 07:49:20;;;;;;;28.70;15.02;;;;;;;1.24;100.00;102072.19;5033247;28;20226;-68
2023/02/09 07:51:46;;;;;;;28.15;14.10;;;;;;;2.04;100.00;102077.19;5034341;28;20202;-71
2023/02/09 07:54:14;;;;;;;29.55;15.20;;;;;;;2.03;100.00;102074.50;5033442;28;20204;-69
2023/02/09 07:56:41;;;;;;;28.83;16.63;;;;;;;2.66;100.00;102084.31;5034656;28;20229;-69
2023/02/09 07:59:10;;;;;;;27.15;15.70;;;;;;;2.62;92.73;102087.84;5049950;28;20236;-71
2023/02/09 08:01:36;;;;;;;31.45;17.98;;;;;;;1.26;99.49;102091.69;5042821;28;20208;-70
2023/02/09 08:04:04;;;;;;;26.70;15.68;;;;;;;2.49;97.30;102084.09;5033016;28;20205;-70
2023/02/09 08:06:35;;;;;;;22.27;15.18;;;;;;;3.50;84.82;102081.81;5045798;28;20207;-70
2023/02/09 08:09:02;;;;;;;30.83;18.00;;;;;;;4.09;78.75;102082.34;5042494;28;20287;-71
2023/02/09 08:11:34;;;;;;;35.47;18.85;;;;;;;4.43;75.81;102083.50;5049670;28;20262;-70
2023/02/09 08:14:04;;;;;;;35.03;17.00;;;;;;;4.96;69.03;102090.06;5060596;28;20224;-68
2023/02/09 08:16:33;;;;;;;36.22;18.70;;;;;;;4.80;72.05;102089.97;5056884;28;20233;-71
2023/02/09 08:19:04;;;;;;;32.63;18.35;;;;;;;4.79;69.51;102090.88;5063500;28;20571;-74
2023/02/09 08:21:36;;;;;;;31.95;18.77;;;;;;;5.71;64.50;102086.72;5052068;28;20198;-71
2023/02/09 08:24:04;;;;;;;29.58;17.55;;;;;;;6.48;61.00;102095.69;5041660;28;20204;-69
2023/02/09 08:26:31;;;;;;;32.33;18.13;;;;;;;5.59;60.91;102099.19;5038745;28;20217;-70
2023/02/09 08:28:58;;;;;;;30.67;19.23;;;;;;;6.48;59.58;102101.03;5049592;28;20232;-70
2023/02/09 08:31:25;;;;;;;30.25;18.25;;;;;;;6.70;56.25;102106.38;5057053;28;20589;-73
2023/02/09 08:33:51;;;;;;;28.33;18.00;;;;;;;6.26;55.32;102092.13;5054077;28;20204;-70
2023/02/09 08:36:19;;;;;;;28.10;17.95;;;;;;;7.82;51.23;102090.63;5049476;28;20576;-74
2023/02/09 08:38:47;;;;;;;31.60;19.50;;;;;;;8.40;49.03;102089.31;5041190;28;20209;-70
2023/02/09 08:41:16;;;;;;;24.63;16.77;;;;;;;7.95;49.34;102088.75;5045957;28;20201;-70
2023/02/09 08:43:46;;;;;;;27.05;18.92;;;;;;;8.55;48.05;102083.81;5050475;28;20199;-72
2023/02/09 08:46:13;;;;;;;30.70;19.00;;;;;;;8.20;46.62;102085.88;5050772;28;20191;-71
2023/02/09 08:48:43;;;;;;;28.58;19.25;;;;;;;8.86;45.39;102091.50;5055368;28;20241;-71
2023/02/09 08:51:11;;;;;;;37.60;19.50;;;;;;;10.42;42.68;102096.47;5047826;28;20202;-69
2023/02/09 08:53:38;;;;;;;34.10;19.85;;;;;;;11.23;41.36;102101.19;5044097;28;20208;-69
2023/02/09 08:56:07;;;;;;;26.23;18.65;;;;;;;10.76;41.08;102106.63;5038139;28;20234;-72
2023/02/09 08:58:34;;;;;;;34.05;24.42;;;;;;;9.68;41.81;102102.13;5039242;28;20234;-67
2023/02/09 09:01:00;;;;;;;32.20;23.52;;;;;;;8.89;44.19;102099.56;5046937;28;20270;-66
2023/02/09 09:03:30;;;;;;;27.30;18.83;;;;;;;10.75;42.62;102112.06;5045688;28;20206;-66
2023/02/09 09:05:57;;;;;;;27.95;19.08;;;;;;;11.68;41.16;102102.00;5035552;28;20189;-66
2023/02/09 09:08:24;;;;;;;25.90;18.92;;;;;;;12.26;39.38;102109.66;5033869;28;20202;-64
2023/02/09 09:10:50;;;;;;;28.45;19.65;;;;;;;11.81;37.84;102107.13;5035594;28;20216;-66
2023/02/09 09:13:19;;;;;;;26.33;19.23;;;;;;;9.85;41.15;102107.25;5044188;28;20193;-67
2023/02/09 09:15:45;;;;;;;22.98;18.55;;;;;;;10.40;40.75;102097.41;5055509;28;20579;-65
2023/02/09 09:18:12;;;;;;;26.80;19.05;;;;;;;11.56;39.25;102087.91;5048198;28;20217;-67
2023/02/09 09:20:39;;;;;;;25.45;18.33;;;;;;;12.41;37.05;102089.47;5041114;28;20190;-66
2023/02/09 09:23:05;;;;;;;29.48;20.52;;;;;;;12.41;38.17;102084.94;5054875;28;20228;-67
2023/02/09 09:25:32;;;;;;;26.65;18.75;;;;;;;10.62;39.83;102084.44;5040962;28;20281;-64
2023/02/09 09:27:59;;;;;;;24.00;18.77;;;;;;;11.40;38.92;102079.28;5034301;28;20206;-65
2023/02/09 09:30:27;;;;;;;24.88;18.60;;;;;;;10.90;38.72;102073.09;5033710;28;20218;-64
2023/02/09 09:32:54;;;;;;;24.17;18.80;;;;;;;12.16;37.94;102076.56;5035161;28;20210;-67
2023/02/09 09:35:20;;;;;;;25.15;18.13;;;;;;;10.63;39.76;102079.03;5043254;28;20274;-65
2023/02/09 09:37:47;;;;;;;25.75;18.13;;;;;;;10.81;39.71;102068.81;5041590;28;20517;-67
2023/02/09 09:40:18;;;;;;;23.73;18.08;;;;;;;10.83;38.90;102075.03;5037736;28;20223;-66
2023/02/09 09:42:51;;;;;;;24.98;17.98;;;;;;;10.43;40.07;102071.31;5034818;28;20285;-65
2023/02/09 09:45:21;;;;;;;27.13;19.55;;;;;;;10.64;39.47;102070.00;5034599;28;20197;-65
2023/02/09 09:47:50;;;;;;;23.30;18.17;;;;;;;11.59;38.96;102066.25;5034046;28;20218;-66
2023/02/09 09:50:19;;;;;;;23.65;17.90;;;;;;;12.61;37.05;102079.00;5035339;28;20269;-73
2023/02/09 09:52:49;;;;;;;86.25;62.60;;;;;;;12.22;37.46;102078.25;5039414;28;20199;-68
2023/02/09 09:55:22;;;;;;;29.17;21.65;;;;;;;11.98;37.22;102068.94;5017374;28;20210;-71
2023/02/09 09:57:49;;;;;;;24.80;18.20;;;;;;;10.85;37.98;102060.63;5033777;28;20194;-70
2023/02/09 10:00:19;;;;;;;24.23;18.27;;;;;;;10.97;38.22;102067.59;5033895;28;20230;-69
2023/02/09 10:02:46;;;;;;;24.50;18.25;;;;;;;11.50;37.53;102071.84;5034177;28;20213;-70
2023/02/09 10:05:18;;;;;;;23.45;17.30;;;;;;;13.35;35.81;102074.22;5034268;28;20327;-71
2023/02/09 10:07:50;;;;;;;22.55;17.15;;;;;;;13.70;34.78;102077.66;5033501;28;20253;-70
2023/02/09 10:10:28;;;;;;;24.80;17.45;;;;;;;14.15;33.96;102083.38;5045981;28;20220;-68
2023/02/09 10:12:55;;;;;;;19.83;15.93;;;;;;;12.26;34.97;102088.06;5065806;28;20199;-68
2023/02/09 10:15:26;;;;;;;20.52;15.98;;;;;;;11.68;36.09;102087.63;5035862;28;20198;-71
2023/02/09 10:17:53;;;;;;;21.25;16.25;;;;;;;11.64;36.68;102088.59;5016246;28;20206;-70
2023/02/09 10:20:41;;;;;;;25.17;17.77;;;;;;;13.02;34.89;102087.75;5033748;28;20230;-70
2023/02/09 10:23:15;;;;;;;22.55;17.27;;;;;;;11.48;36.12;102088.06;5033855;28;20194;-70
2023/02/09 10:25:52;;;;;;;19.50;16.60;;;;;;;10.29;37.58;102086.84;5034035;28;20199;-73
2023/02/09 10:28:20;;;;;;;20.65;16.75;;;;;;;11.24;37.07;102087.69;5032939;28;20290;-72
2023/02/09 10:30:47;;;;;;;24.33;17.50;;;;;;;13.88;34.42;102087.00;5033924;28;20206;-72
2023/02/09 10:33:15;;;;;;;23.85;16.98;;;;;;;13.38;33.54;102094.88;5039523;28;20559;-72
2023/02/09 10:35:47;;;;;;;22.33;16.42;;;;;;;11.53;35.49;102096.06;5053932;28;20199;-70
2023/02/09 10:38:17;;;;;;;25.90;16.98;;;;;;;10.52;37.64;102085.53;5053162;28;20202;-73
2023/02/09 10:40:46;;;;;;;22.90;17.27;;;;;;;12.48;35.62;102078.47;5053657;28;20202;-70
2023/02/09 10:43:21;;;;;;;24.58;16.65;;;;;;;11.03;36.30;102083.63;5049174;28;20200;-70
2023/02/09 10:45:54;;;;;;;21.67;17.52;;;;;;;10.74;37.31;102080.59;5042103;28;20287;-72
2023/02/09 10:48:23;;;;;;;22.83;17.38;;;;;;;10.94;37.70;102072.13;5041643;28;20201;-70
2023/02/09 10:50:56;;;;;;;25.30;19.52;;;;;;;14.46;34.06;102070.63;5054126;28;20194;-69
2023/02/09 10:53:27;;;;;;;22.60;17.48;;;;;;;12.45;35.66;102069.53;5040438;28;20191;-67
2023/02/09 10:56:01;;;;;;;176.88;118.78;;;;;;;10.27;39.48;102079.66;5039037;28;20224;-66
2023/02/09 10:58:30;;;;;;;33.22;24.50;;;;;;;10.29;39.90;102075.16;5050951;28;20709;-68
2023/02/09 11:01:06;;;;;;;29.02;21.02;;;;;;;10.23;38.93;102077.00;5052073;28;20193;-68
2023/02/09 11:03:32;;;;;;;30.73;22.55;;;;;;;9.99;40.64;102067.56;5046564;28;20193;-67
2023/02/09 11:06:06;;;;;;;27.75;20.70;;;;;;;10.27;39.30;102069.78;5059437;28;20208;-71
2023/02/09 11:08:43;;;;;;;28.35;19.35;;;;;;;9.74;38.99;102077.78;5062455;28;20247;-70
2023/02/09 11:11:23;;;;;;;29.08;20.58;;;;;;;9.91;39.23;102065.91;5066700;28;20257;-70
2023/02/09 11:13:49;;;;;;;28.55;19.38;;;;;;;11.51;36.71;102074.53;5061153;28;20184;-73
2023/02/09 11:17:00;;;;;;;26.02;18.35;;;;;;;11.04;37.10;102080.00;5060125;28;20284;-73
2023/02/09 11:19:58;;;;;;;25.15;18.52;;;;;;;10.38;37.92;102070.50;5048047;28;20224;-70